首页
METAR-TAF:

METAR-TAF

机场 :

杰克逊维尔, 佛罗里达州, 美国

纬度: 30-14-03N, 经度: 081-40-29W, 海拔: 6米

当前天气观测

该预报发布于34分钟前的14:53 UTC
风速10节,风向西
温度 27°C
湿度 70%
气压 1018 hPa
能見度: 16.1公里
少量云层高于1500英尺
散云层高于5000英尺
多云层高于9000英尺
阴天层高于25000英尺

METAR: KNIP 051453Z 27010KT 10SM FEW015 SCT050 BKN090 OVC250 27/21 A3006 RMK AO2 SLP175 T02720206 51009 $

时间: 11:27 (15:27 UTC)

预报

预报有效从05日的 15点(UTC)到 06日的 15点(UTC)
风速8节,风向西南
能见度10公里或以上
少量云层高于800英尺
散云层高于1500英尺
多云层高于6000英尺
多云层高于10000英尺
多云层高于25000英尺
附近有阵雨
短暂存在
从 05日的 17点(UTC)到 05日的 21点(UTC)
能見度: 9000
多云层高于1000英尺
阴天层高于10000英尺
小阵雨
从 05日的 2100点(UTC)
风速10节,风向南转西南
能见度10公里或以上
散云层高于2000英尺
多云层高于15000英尺
阴天层高于25000英尺
附近有阵雨
从 06日的 0100点(UTC)
风速8节,风向西南
能見度: 1516
少量云层高于1500英尺
散云层高于3000英尺
多云层高于10000英尺
多云层高于25000英尺

TAF: KNIP 0515/0615 22008KT 9999 VCSH FEW008 SCT015 BKN060 BKN100 BKN250 QNH2998INS TEMPO 0517/0521 9000 -SHRA BKN010 OVC100 FM052100 20010KT 9999 VCSH SCT020 BKN150 OVC250 QNH2997INS FM060100 23008KT 9999 FEW015 SCT030 BKN100 BKN250 QNH3000INS T28/0520Z T24/0612Z COR 1516 FN20076

超过4000个机场的气象观测和天气预报(METAR&TAF报告)。

可查询的气象台以黄色和红色小点在地图上表示。

将鼠标移到小点上方,可查看气象台名称。

然后点击查看天气观测和预报。

如需切换地图:点击带黑十字的绿色按钮放大地图;点击带横线的绿色按钮缩小地图;或者点击绿色箭头查看邻近地区的地图。


METAR-TAF: